Time;durP1;ratioP1;P1;durP2;ratioP2;P2;SDS_P1;SDS_P2;PMS_P1;PMS_P2;Temp;Humidity;BMP_temperature;BMP_pressure;BME280_temperature;BME280_humidity;BME280_pressure;Samples;Min_cycle;Max_cycle;Signal;HPM_P1;HPM_P2
2021/07/02 00:00:48;;;;;;;2.05;1.92;;;17.90;71.70;;;17.80;56.47;94877.94;4970808;28;20239;-85
2021/07/02 00:03:15;;;;;;;2.95;2.05;;;17.90;71.70;;;17.80;56.75;94881.44;4769533;29;20217;-85
2021/07/02 00:05:53;;;;;;;3.28;2.13;;;17.90;71.80;;;17.80;56.22;94889.38;5137456;27;20383;-86
2021/07/02 00:08:25;;;;;;;2.67;2.05;;;17.90;71.80;;;17.82;56.16;94887.31;5091570;28;20204;-86
2021/07/02 00:10:53;;;;;;;2.88;1.92;;;17.90;71.80;;;17.81;56.65;94872.44;5072059;28;20234;-85
2021/07/02 00:13:20;;;;;;;2.67;1.92;;;17.90;71.90;;;17.86;56.37;94883.13;5080817;28;20206;-85
2021/07/02 00:15:47;;;;;;;3.03;2.10;;;17.90;71.90;;;17.89;56.38;94879.19;5055522;28;20296;-86
2021/07/02 00:18:14;;;;;;;2.08;1.80;;;17.90;71.80;;;17.88;56.42;94875.75;4997815;28;20293;-85
2021/07/02 00:20:40;;;;;;;2.50;2.30;;;18.00;71.90;;;17.91;56.38;94877.91;4892473;29;20233;-85
2021/07/02 00:23:06;;;;;;;2.40;2.13;;;17.90;71.90;;;17.92;56.29;94878.72;4726555;29;20217;-86
2021/07/02 00:27:20;;;;;;;2.50;2.30;;;18.00;71.90;;;17.89;56.38;94884.50;5147033;27;21143;-86
2021/07/02 00:29:46;;;;;;;3.05;2.00;;;18.10;71.90;;;17.85;56.59;94873.56;5105497;28;20217;-86
2021/07/02 00:32:13;;;;;;;2.50;2.10;;;18.00;71.80;;;17.87;56.71;94875.97;5055706;28;20224;-85
2021/07/02 00:34:40;;;;;;;4.15;2.63;;;18.00;71.80;;;17.83;56.42;94875.63;5040550;28;20235;-84
2021/07/02 00:37:06;;;;;;;2.53;2.33;;;18.00;71.80;;;17.80;56.74;94881.44;4996053;28;20207;-85
2021/07/02 00:39:33;;;;;;;2.58;2.28;;;17.90;71.70;;;17.76;56.68;94885.59;4969564;28;20231;-86
2021/07/02 00:41:59;;;;;;;2.78;2.45;;;17.90;71.80;;;17.73;57.27;94870.94;4897100;29;20217;-85
2021/07/02 00:44:48;;;;;;;2.30;2.10;;;17.90;71.90;;;17.66;57.06;94870.28;4788399;29;20269;-85
2021/07/02 00:49:15;;;;;;;2.42;2.05;;;18.00;73.40;;;17.57;57.25;94880.47;5133968;27;20578;-85
2021/07/02 00:51:42;;;;;;;2.40;2.20;;;17.90;71.90;;;17.50;57.62;94871.84;5087125;28;20197;-84
2021/07/02 00:54:10;;;;;;;2.00;1.90;;;17.80;72.10;;;17.44;57.57;94873.59;5095393;28;20260;-84
2021/07/02 00:56:37;;;;;;;1.90;1.80;;;17.80;72.00;;;17.35;57.92;94880.31;5074150;28;20203;-83
2021/07/02 00:59:04;;;;;;;2.17;2.00;;;17.70;72.20;;;17.25;58.46;94874.81;5080848;28;20237;-83
2021/07/02 01:01:32;;;;;;;2.08;1.88;;;17.60;72.50;;;17.17;58.77;94869.88;5008402;28;20300;-84
2021/07/02 01:04:03;;;;;;;2.88;1.98;;;17.60;73.50;;;17.07;58.71;94870.47;4885194;29;20232;-83
2021/07/02 01:06:32;;;;;;;2.22;1.90;;;17.50;72.60;;;16.98;59.16;94872.69;4738696;29;20292;-82
2021/07/02 01:10:27;;;;;;;2.38;1.60;;;17.40;72.70;;;16.83;59.35;94867.03;5133280;27;20651;-83
2021/07/02 01:12:54;;;;;;;1.83;1.70;;;17.30;72.80;;;16.75;59.69;94873.50;5074728;28;20202;-82
2021/07/02 01:15:26;;;;;;;2.72;1.85;;;17.20;73.00;;;16.67;59.95;94868.53;5066603;28;20914;-83
2021/07/02 01:18:06;;;;;;;2.22;1.80;;;17.10;73.70;;;16.58;59.64;94865.44;4991447;28;20211;-82
2021/07/02 01:20:34;;;;;;;1.98;1.70;;;17.00;73.80;;;16.51;59.74;94864.75;4954946;28;20230;-83
2021/07/02 01:23:01;;;;;;;1.70;1.60;;;17.00;73.70;;;16.47;60.10;94862.53;4911388;28;20208;-81
2021/07/02 01:25:35;;;;;;;1.90;1.58;;;16.90;73.80;;;16.41;59.92;94860.00;4820123;29;20235;-82
2021/07/02 01:28:06;;;;;;;2.35;1.70;;;16.80;74.20;;;16.34;60.91;94862.75;4630201;30;20246;-81
2021/07/02 01:32:39;;;;;;;2.58;1.60;;;16.80;74.20;;;16.25;61.08;94864.94;5140788;27;21154;-82
2021/07/02 01:35:07;;;;;;;1.70;1.60;;;16.70;74.30;;;16.21;61.60;94857.69;5101358;28;20296;-82
2021/07/02 01:37:34;;;;;;;1.67;1.58;;;16.60;74.70;;;16.19;61.28;94860.56;5091830;27;20679;-82
2021/07/02 01:40:04;;;;;;;1.88;1.75;;;16.60;74.90;;;16.17;61.43;94855.50;5031067;28;20227;-82
2021/07/02 01:42:31;;;;;;;2.10;1.90;;;16.50;75.10;;;16.17;60.95;94857.34;5031183;28;20240;-82
2021/07/02 01:44:58;;;;;;;2.25;2.05;;;16.50;75.10;;;16.14;62.12;94860.44;5013251;28;20211;-82
2021/07/02 01:47:25;;;;;;;2.10;1.90;;;16.50;75.40;;;16.17;61.33;94865.28;4918720;28;20217;-83
2021/07/02 01:49:53;;;;;;;2.20;2.00;;;16.40;75.40;;;16.17;61.73;94858.16;4777013;29;20262;-83
2021/07/02 01:54:34;;;;;;;2.58;1.85;;;16.50;75.50;;;16.12;61.39;94841.34;5129637;27;20663;-82
2021/07/02 01:57:13;;;;;;;2.08;1.92;;;16.40;75.50;;;16.13;61.96;94849.03;5108671;28;20184;-82
2021/07/02 01:59:41;;;;;;;2.72;2.00;;;16.40;76.00;;;16.11;61.69;94850.31;5053634;28;20249;-81
2021/07/02 02:02:14;;;;;;;2.03;1.88;;;16.40;75.60;;;16.12;61.31;94851.91;5068207;28;20206;-82
2021/07/02 02:04:41;;;;;;;2.47;2.28;;;16.50;75.70;;;16.12;61.85;94843.97;5035353;28;20228;-82
2021/07/02 02:07:09;;;;;;;2.60;2.40;;;16.40;76.60;;;16.10;61.84;94844.22;4998256;28;20216;-82
2021/07/02 02:09:37;;;;;;;4.40;2.17;;;16.40;75.90;;;16.09;61.28;94839.97;4939104;28;20246;-82
2021/07/02 02:12:05;;;;;;;2.53;1.90;;;16.40;75.80;;;16.08;60.98;94840.19;4771196;29;20251;-82
2021/07/02 02:17:00;;;;;;;2.20;2.00;;;16.30;75.70;;;16.02;61.57;94830.53;5133931;27;20330;-82
2021/07/02 02:19:27;;;;;;;2.45;2.20;;;16.30;75.80;;;16.04;61.01;94833.72;5108307;28;20678;-82
2021/07/02 02:21:54;;;;;;;2.92;2.10;;;16.30;75.80;;;16.03;61.63;94825.00;5090132;28;20209;-82
2021/07/02 02:24:28;;;;;;;4.18;2.50;;;16.30;75.90;;;16.02;62.29;94830.53;5073563;28;20255;-83
2021/07/02 02:26:55;;;;;;;2.50;2.30;;;16.30;76.20;;;16.02;61.49;94825.22;5062032;28;20667;-83
2021/07/02 02:29:23;;;;;;;5.68;2.50;;;16.20;76.10;;;16.02;61.69;94833.16;5024880;28;20390;-83
2021/07/02 02:31:51;;;;;;;2.63;2.42;;;16.20;76.20;;;15.99;61.54;94818.53;4995428;28;20206;-83
2021/07/02 02:34:20;;;;;;;3.42;2.35;;;16.20;76.20;;;16.03;61.74;94838.22;4871302;28;20273;-83
2021/07/02 02:38:42;;;;;;;3.13;2.72;;;16.30;76.20;;;16.04;62.02;94846.94;5144334;27;20547;-83
2021/07/02 02:41:10;;;;;;;3.42;2.70;;;16.20;76.20;;;16.04;61.68;94837.19;5080744;28;20201;-83
2021/07/02 02:43:37;;;;;;;3.60;2.95;;;16.30;76.40;;;16.07;61.76;94842.00;5076430;28;20214;-83
2021/07/02 02:46:04;;;;;;;3.22;2.83;;;16.30;76.40;;;16.08;62.80;94840.19;5031284;28;20207;-83
2021/07/02 02:48:31;;;;;;;4.78;2.80;;;16.30;76.60;;;16.05;62.30;94835.34;4977895;28;20303;-83
2021/07/02 02:50:59;;;;;;;3.38;2.72;;;16.30;76.70;;;16.09;62.16;94841.81;4943236;28;20263;-84
2021/07/02 02:53:26;;;;;;;3.20;2.88;;;16.30;76.70;;;16.10;61.88;94835.47;4902098;29;20667;-83
2021/07/02 02:55:54;;;;;;;3.78;3.05;;;16.30;76.70;;;16.13;62.14;94838.47;4786103;29;20227;-83
2021/07/02 03:00:11;;;;;;;4.30;2.80;;;16.30;76.70;;;16.14;62.19;94836.63;5133878;27;20558;-83
2021/07/02 03:02:38;;;;;;;3.55;2.80;;;16.30;76.70;;;16.15;61.99;94833.75;5061547;28;20207;-84
2021/07/02 03:05:25;;;;;;;3.05;2.67;;;16.40;76.60;;;16.17;61.82;94836.16;5092206;28;20278;-83
2021/07/02 03:07:54;;;;;;;4.53;3.45;;;16.30;76.40;;;16.20;62.25;94841.00;5076014;28;20407;-84
2021/07/02 03:10:30;;;;;;;3.17;2.88;;;16.40;76.60;;;16.19;62.10;94847.34;5018365;28;20225;-83
2021/07/02 03:12:58;;;;;;;3.65;3.05;;;16.40;76.60;;;16.19;61.82;94849.97;5005098;28;20610;-83
2021/07/02 03:15:26;;;;;;;5.22;2.80;;;16.40;76.50;;;16.20;61.61;94843.66;4926502;28;20314;-84
2021/07/02 03:17:53;;;;;;;3.35;2.70;;;16.40;76.40;;;16.20;61.49;94851.59;4721256;29;20259;-83
2021/07/02 03:20:32;;;;;;;5.63;3.72;;;16.40;76.30;;;16.18;62.53;94851.00;5132687;27;20842;-84
2021/07/02 03:23:00;;;;;;;4.35;3.40;;;16.40;76.50;;;16.15;62.45;94846.19;5090237;28;20210;-83
2021/07/02 03:25:28;;;;;;;4.07;3.38;;;16.40;76.60;;;16.11;62.39;94837.91;5090231;28;20221;-84
2021/07/02 03:27:55;;;;;;;4.05;3.50;;;16.40;76.50;;;16.10;62.72;94851.34;5070128;28;20206;-83
2021/07/02 03:30:23;;;;;;;3.47;3.13;;;16.40;76.70;;;16.08;62.43;94848.94;5020168;28;20240;-82
2021/07/02 03:32:50;;;;;;;3.65;3.20;;;16.30;76.60;;;16.08;62.95;94851.56;4934475;28;20216;-83
2021/07/02 03:35:18;;;;;;;5.13;3.40;;;16.40;76.80;;;16.08;62.87;94858.72;4888014;29;20241;-82
2021/07/02 03:37:45;;;;;;;3.60;3.28;;;16.30;76.80;;;16.08;62.61;94858.72;4777843;29;20237;-82
2021/07/02 03:42:29;;;;;;;4.63;3.63;;;16.40;76.90;;;16.03;63.08;94853.28;5148508;27;20571;-83
2021/07/02 03:44:57;;;;;;;4.75;3.88;;;16.30;76.90;;;16.03;63.08;94855.91;5120330;27;20223;-83
2021/07/02 03:47:25;;;;;;;3.90;3.13;;;16.40;76.90;;;16.03;62.66;94853.28;5098535;28;20288;-82
2021/07/02 03:49:52;;;;;;;4.53;3.90;;;16.30;76.80;;;16.00;62.94;94850.06;5028504;28;20231;-83
2021/07/02 03:52:19;;;;;;;5.05;4.18;;;16.30;77.00;;;15.98;63.22;94843.41;4984749;28;20300;-83
2021/07/02 03:54:46;;;;;;;4.82;4.05;;;16.30;77.00;;;15.93;63.42;94854.66;4888258;29;20232;-83
2021/07/02 03:57:13;;;;;;;5.15;3.80;;;16.30;77.20;;;15.94;63.69;94853.63;4830712;29;20644;-83
2021/07/02 03:59:48;;;;;;;4.13;3.70;;;16.30;77.20;;;15.94;63.71;94858.91;4736131;29;20301;-83
2021/07/02 04:02:28;;;;;;;5.45;3.95;;;16.20;77.50;;;15.90;64.09;94849.00;5148937;27;20331;-84
2021/07/02 04:04:55;;;;;;;4.57;3.95;;;16.20;77.50;;;15.87;63.98;94858.22;5086526;28;20223;-83
2021/07/02 04:07:24;;;;;;;5.38;3.72;;;16.30;77.70;;;15.87;63.54;94857.38;5106376;28;20264;-83
2021/07/02 04:09:51;;;;;;;4.97;3.67;;;16.20;77.60;;;15.86;63.94;94859.22;5111104;27;20222;-83
2021/07/02 04:12:18;;;;;;;5.85;4.82;;;16.20;77.50;;;15.83;63.78;94857.03;5099599;28;20670;-83
2021/07/02 04:14:45;;;;;;;4.78;3.90;;;16.20;77.70;;;15.77;64.24;94850.78;5021421;28;20215;-84
2021/07/02 04:17:11;;;;;;;4.35;3.95;;;16.10;77.70;;;15.82;64.20;94856.22;4897876;28;20686;-83
2021/07/02 04:19:38;;;;;;;4.60;3.92;;;16.10;77.80;;;15.82;63.69;94850.94;4722313;29;20756;-83
2021/07/02 04:24:22;;;;;;;7.03;4.53;;;16.10;77.80;;;15.80;64.76;94855.63;5142282;27;20668;-83
2021/07/02 04:27:09;;;;;;;6.03;4.70;;;16.10;78.20;;;15.81;64.37;94854.59;5077188;27;20659;-83
2021/07/02 04:29:35;;;;;;;6.15;4.50;;;16.20;78.30;;;15.83;63.94;94857.03;5092523;28;20279;-84
2021/07/02 04:32:02;;;;;;;4.80;4.28;;;16.10;78.20;;;15.90;64.30;94856.94;5056160;28;20208;-83
2021/07/02 04:34:29;;;;;;;5.03;4.25;;;16.10;78.30;;;15.94;64.14;94860.75;5036030;28;20262;-84
2021/07/02 04:36:56;;;;;;;5.53;4.35;;;16.20;78.40;;;15.98;64.16;94861.91;4970498;28;20216;-83
2021/07/02 04:39:23;;;;;;;5.10;4.22;;;16.00;78.40;;;16.01;63.97;94864.09;4886537;29;20318;-84
2021/07/02 04:41:49;;;;;;;4.75;4.22;;;16.20;78.50;;;16.08;64.21;94871.94;4754217;29;20225;-83
2021/07/02 04:46:04;;;;;;;5.47;4.15;;;16.20;78.70;;;16.13;63.98;94878.16;5151011;27;20630;-83
2021/07/02 04:48:42;;;;;;;5.32;4.75;;;16.30;78.50;;;16.14;64.26;94877.13;5117362;28;20230;-82
2021/07/02 04:51:08;;;;;;;6.28;4.88;;;16.40;78.60;;;16.19;64.08;94884.38;5095382;28;20239;-83
2021/07/02 04:53:35;;;;;;;6.72;5.20;;;16.40;78.50;;;16.22;64.05;94880.47;5040101;28;20227;-83
2021/07/02 04:56:01;;;;;;;6.80;5.13;;;16.30;78.30;;;16.23;64.14;94880.22;4995118;28;20297;-84
2021/07/02 04:58:27;;;;;;;6.47;5.32;;;16.40;78.60;;;16.22;64.12;94877.81;4955194;28;20225;-83
2021/07/02 05:00:54;;;;;;;6.30;5.40;;;16.40;78.50;;;16.21;63.90;94874.38;4841976;29;20739;-83
2021/07/02 05:03:21;;;;;;;5.63;4.85;;;16.40;78.40;;;16.24;64.34;94875.75;4712889;29;20341;-83
2021/07/02 05:07:45;;;;;;;6.25;5.47;;;16.50;78.50;;;16.26;63.64;94871.84;5148207;27;20962;-84
2021/07/02 05:10:12;;;;;;;6.68;5.93;;;16.50;78.30;;;16.26;63.88;94869.19;5088675;27;20215;-84
2021/07/02 05:12:38;;;;;;;5.43;4.82;;;16.50;78.30;;;16.30;64.12;94870.34;5091874;28;20209;-83
2021/07/02 05:15:06;;;;;;;7.45;5.60;;;16.50;78.40;;;16.34;63.85;94873.34;5081027;28;20219;-84
2021/07/02 05:17:33;;;;;;;7.82;6.13;;;16.50;78.50;;;16.36;63.96;94870.50;5066823;28;20308;-83
2021/07/02 05:20:00;;;;;;;9.10;6.97;;;16.50;78.40;;;16.36;64.22;94876.56;4981777;28;20782;-83
2021/07/02 05:22:29;;;;;;;8.75;6.45;;;16.50;78.40;;;16.41;63.98;94881.19;4989151;28;20686;-84
2021/07/02 05:24:55;;;;;;;6.93;5.63;;;16.60;78.40;;;16.47;63.49;94880.28;4882651;28;20294;-83
2021/07/02 05:29:12;;;;;;;7.63;5.22;;;16.60;78.30;;;16.53;63.36;94874.06;5144153;27;20648;-84
2021/07/02 05:31:38;;;;;;;6.13;5.50;;;16.60;78.30;;;16.59;63.31;94875.78;5103337;28;20201;-83
2021/07/02 05:34:06;;;;;;;7.55;5.25;;;16.70;78.30;;;16.67;63.10;94887.06;5083566;28;20267;-83
2021/07/02 05:36:32;;;;;;;8.00;5.68;;;16.70;78.30;;;16.72;63.78;94887.19;5106277;28;20267;-84
2021/07/02 05:38:59;;;;;;;5.68;5.07;;;16.80;78.30;;;16.78;63.14;94880.97;5047878;28;20279;-84
2021/07/02 05:41:25;;;;;;;7.82;5.35;;;16.80;78.30;;;16.87;62.82;94884.88;5050600;28;20209;-84
2021/07/02 05:43:52;;;;;;;5.80;4.82;;;16.80;78.40;;;16.99;63.11;94886.72;4973361;28;20233;-84
2021/07/02 05:46:18;;;;;;;6.07;5.03;;;16.90;78.40;;;17.11;62.93;94892.81;4928802;28;20214;-84
2021/07/02 05:50:53;;;;;;;7.00;4.65;;;17.10;78.50;;;17.22;62.53;94888.53;5151054;27;21146;-84
2021/07/02 05:53:20;;;;;;;6.18;5.00;;;17.10;78.20;;;17.28;62.42;94883.13;5112471;27;20200;-85
2021/07/02 05:55:47;;;;;;;6.75;5.20;;;17.20;78.20;;;17.38;62.26;94889.63;5115890;27;20236;-85
2021/07/02 05:58:13;;;;;;;5.80;4.25;;;17.30;78.10;;;17.42;62.01;94886.28;5105727;28;20201;-84
2021/07/02 06:00:41;;;;;;;5.63;4.90;;;17.30;77.90;;;17.44;62.00;94884.22;5081515;28;20304;-84
2021/07/02 06:03:08;;;;;;;5.85;4.38;;;17.40;77.80;;;17.49;62.07;94894.13;4989344;28;20205;-85
2021/07/02 06:05:35;;;;;;;7.63;4.75;;;17.50;77.80;;;17.47;61.77;94888.25;4881268;28;20238;-84
2021/07/02 06:08:02;;;;;;;6.18;4.75;;;17.50;77.80;;;17.55;62.37;94889.69;4780212;29;20240;-84
2021/07/02 06:12:04;;;;;;;6.57;5.20;;;17.50;77.80;;;17.52;62.13;94901.59;5150845;27;21128;-84
2021/07/02 06:14:31;;;;;;;5.10;4.60;;;17.60;77.40;;;17.51;61.98;94902.63;5112439;27;20228;-84
2021/07/02 06:16:58;;;;;;;5.43;4.10;;;17.60;77.20;;;17.50;61.80;94900.22;5099686;28;20212;-84
2021/07/02 06:19:25;;;;;;;5.60;4.43;;;17.60;77.10;;;17.50;62.04;94903.66;5084842;28;20221;-83
2021/07/02 06:21:51;;;;;;;5.32;4.13;;;17.60;77.10;;;17.47;62.04;94906.81;5021485;28;20197;-84
2021/07/02 06:24:18;;;;;;;11.57;4.45;;;17.60;77.10;;;17.45;61.62;94903.56;4915502;28;20231;-85
2021/07/02 06:26:44;;;;;;;6.60;4.28;;;17.60;77.00;;;17.35;61.52;94898.06;4920695;28;20284;-85
2021/07/02 06:29:11;;;;;;;4.68;4.18;;;17.60;77.00;;;17.34;61.98;94907.84;4875068;29;20304;-83
2021/07/02 06:34:14;;;;;;;5.05;4.55;;;17.60;77.00;;;17.26;62.33;94908.25;5143703;27;21163;-83
2021/07/02 06:36:41;;;;;;;4.97;4.15;;;17.50;77.00;;;17.22;62.40;94910.56;5091504;28;20211;-83
2021/07/02 06:39:08;;;;;;;5.15;4.30;;;17.60;77.10;;;17.17;62.11;94902.47;5092606;28;20228;-83
2021/07/02 06:41:35;;;;;;;4.85;4.00;;;17.40;77.00;;;17.16;62.03;94905.38;5061999;28;20206;-82
2021/07/02 06:44:01;;;;;;;4.50;3.80;;;17.40;77.10;;;17.18;62.02;94911.25;5063509;28;20326;-83
2021/07/02 06:46:32;;;;;;;4.57;4.18;;;17.40;77.20;;;17.16;62.08;94908.03;5010791;28;20684;-83
2021/07/02 06:49:01;;;;;;;5.35;4.22;;;17.30;77.20;;;17.13;62.40;94911.94;4859355;29;20223;-82
2021/07/02 06:51:27;;;;;;;4.85;4.22;;;17.40;77.40;;;17.10;62.58;94909.75;4721174;29;20224;-82
2021/07/02 06:55:56;;;;;;;4.25;3.85;;;17.40;77.30;;;16.95;62.82;94904.94;5150964;27;20641;-84
2021/07/02 06:58:22;;;;;;;4.30;3.80;;;17.30;77.30;;;16.96;62.86;94911.84;5112290;27;20208;-83
2021/07/02 07:00:49;;;;;;;4.38;3.78;;;17.30;77.40;;;17.01;62.73;94916.47;5114966;27;20816;-81
2021/07/02 07:03:16;;;;;;;4.68;4.05;;;17.20;77.50;;;17.05;62.88;94918.41;5106800;28;20205;-82
2021/07/02 07:05:43;;;;;;;4.68;3.90;;;17.20;77.60;;;17.12;62.67;94912.97;5075428;28;20238;-82
2021/07/02 07:08:09;;;;;;;4.90;3.80;;;17.20;77.70;;;17.19;62.77;94920.81;5020224;28;20251;-82
2021/07/02 07:10:37;;;;;;;4.80;3.90;;;17.30;77.80;;;17.23;62.75;94920.09;4985551;28;20730;-83
2021/07/02 07:13:05;;;;;;;4.30;3.90;;;17.30;77.60;;;17.24;62.46;94921.72;4840273;28;20219;-83
2021/07/02 07:18:09;;;;;;;4.25;3.45;;;17.30;77.70;;;17.36;62.51;94927.00;5150630;27;20934;-82
2021/07/02 07:20:36;;;;;;;3.58;3.28;;;17.40;77.80;;;17.41;62.43;94921.78;5111767;27;20276;-81
2021/07/02 07:23:03;;;;;;;3.63;3.17;;;17.50;78.00;;;17.50;62.70;94932.03;5104843;28;20344;-83
2021/07/02 07:25:29;;;;;;;4.28;3.33;;;17.50;78.00;;;17.51;62.54;94931.00;5059689;28;20228;-81
2021/07/02 07:27:56;;;;;;;3.42;3.13;;;17.50;77.80;;;17.50;62.45;94921.44;5004015;28;20721;-81
2021/07/02 07:30:22;;;;;;;5.18;3.10;;;17.60;77.80;;;17.50;62.41;94921.44;4991895;28;20246;-80
2021/07/02 07:32:53;;;;;;;3.67;3.38;;;17.60;77.60;;;17.50;62.55;94924.09;4963909;28;20628;-81
2021/07/02 07:35:26;;;;;;;3.47;3.10;;;17.70;78.40;;;17.49;62.60;94933.06;4912194;28;20231;-81
2021/07/02 07:38:03;;;;;;;3.92;3.53;;;17.60;77.50;;;17.44;62.54;94926.66;5149074;27;20402;-81
2021/07/02 07:40:31;;;;;;;3.50;3.20;;;17.60;77.40;;;17.47;62.79;94930.66;5094025;28;20269;-80
2021/07/02 07:42:58;;;;;;;3.78;3.42;;;17.70;77.60;;;17.47;62.73;94935.97;5066857;28;20218;-80
2021/07/02 07:45:26;;;;;;;3.00;2.70;;;17.70;77.60;;;17.49;62.44;94941.84;5069032;28;20252;-81
2021/07/02 07:47:53;;;;;;;3.88;3.30;;;17.60;77.60;;;17.48;62.51;94929.63;5050860;28;20285;-83
2021/07/02 07:50:28;;;;;;;3.60;3.20;;;17.70;77.50;;;17.51;62.27;94938.97;5047719;28;20227;-80
2021/07/02 07:53:01;;;;;;;3.60;3.30;;;17.70;77.60;;;17.54;62.61;94936.66;4990324;28;20237;-82
2021/07/02 07:55:29;;;;;;;3.60;3.05;;;17.70;77.70;;;17.56;62.35;94934.53;4908127;28;20243;-82
2021/07/02 08:00:30;;;;;;;3.58;3.22;;;17.60;77.60;;;17.54;62.68;94933.16;5132584;27;20608;-81
2021/07/02 08:02:57;;;;;;;3.80;3.25;;;17.70;77.60;;;17.51;62.17;94939.75;5091458;28;20254;-82
2021/07/02 08:05:25;;;;;;;3.40;3.10;;;17.70;77.50;;;17.50;62.43;94935.47;5087337;28;20328;-81
2021/07/02 08:07:52;;;;;;;3.45;3.15;;;17.70;77.50;;;17.45;62.29;94938.03;5084541;28;20647;-81
2021/07/02 08:10:21;;;;;;;3.30;2.97;;;17.70;77.50;;;17.43;62.10;94934.81;5026567;28;20215;-81
2021/07/02 08:12:48;;;;;;;3.80;3.47;;;17.60;77.40;;;17.38;62.38;94942.66;4990893;28;20304;-80
2021/07/02 08:15:17;;;;;;;3.15;2.85;;;17.70;77.50;;;17.36;62.70;94953.50;4910529;29;20259;-81
2021/07/02 08:17:43;;;;;;;3.63;3.17;;;17.60;77.50;;;17.34;62.39;94944.19;4790040;29;20560;-81
2021/07/02 08:22:41;;;;;;;3.20;2.90;;;17.60;77.40;;;17.35;62.81;94945.78;5150366;27;20612;-81
2021/07/02 08:25:10;;;;;;;3.67;3.28;;;17.60;77.80;;;17.40;62.49;94940.59;5118334;28;20221;-81
2021/07/02 08:30:22;;;;;;;3.20;2.90;;;17.60;78.20;;;17.62;63.05;94942.63;5075630;28;20225;-81
2021/07/02 08:32:49;;;;;;;3.10;2.80;;;17.60;78.20;;;17.72;63.04;94958.72;5076893;28;20304;-82
2021/07/02 08:35:21;;;;;;;2.70;2.50;;;17.70;78.30;;;17.81;62.51;94949.38;5077817;28;20705;-81
2021/07/02 08:37:52;;;;;;;2.97;2.67;;;17.80;78.30;;;17.87;62.66;94948.41;5007715;28;20233;-81
2021/07/02 08:40:20;;;;;;;2.63;2.43;;;17.80;78.10;;;17.96;62.28;94951.53;4791676;29;20290;-81
2021/07/02 08:45:08;;;;;;;5.25;2.90;;;17.90;78.10;;;18.26;62.61;94944.34;5135831;27;20577;-82
2021/07/02 08:47:35;;;;;;;2.65;2.45;;;18.10;78.60;;;18.46;62.33;94942.03;5102241;28;20198;-81
2021/07/02 08:50:03;;;;;;;3.33;2.17;;;18.20;78.70;;;18.66;61.91;94946.06;5066525;28;20288;-81
2021/07/02 08:52:32;;;;;;;2.50;2.30;;;18.30;78.80;;;18.81;62.01;94943.66;5028916;28;20213;-82
2021/07/02 08:54:58;;;;;;;2.55;2.35;;;18.40;78.70;;;18.96;60.81;94944.97;4992425;28;20237;-82
2021/07/02 08:57:24;;;;;;;2.97;2.67;;;18.70;78.20;;;18.99;60.36;94947.94;4949001;28;20222;-81
2021/07/02 08:59:51;;;;;;;2.80;2.30;;;18.70;77.50;;;18.95;60.18;94960.09;4881157;29;20245;-82
2021/07/02 09:02:30;;;;;;;3.55;2.20;;;18.80;77.10;;;18.91;60.67;94951.00;4755647;29;20270;-82
2021/07/02 09:07:16;;;;;;;4.10;2.40;;;18.90;76.90;;;18.87;60.35;94947.16;5150099;27;20630;-83
2021/07/02 09:09:55;;;;;;;2.45;2.25;;;18.90;76.60;;;18.90;60.99;94943.25;5095749;27;20227;-82
2021/07/02 09:12:30;;;;;;;2.58;2.38;;;18.90;76.60;;;18.91;60.27;94943.03;5128763;27;20196;-83
2021/07/02 09:15:06;;;;;;;2.50;2.30;;;19.00;76.80;;;18.94;60.44;94953.16;5086419;28;21514;-82
2021/07/02 09:17:46;;;;;;;3.10;2.63;;;19.00;76.70;;;18.94;60.22;94950.50;5002165;28;20618;-83
2021/07/02 09:20:15;;;;;;;3.20;2.90;;;19.00;76.50;;;18.90;60.44;94953.88;4878654;29;20237;-83
2021/07/02 09:22:48;;;;;;;3.30;2.70;;;19.00;76.40;;;18.86;60.13;94948.25;4843727;29;20681;-83
2021/07/02 09:25:40;;;;;;;3.38;3.08;;;19.00;76.10;;;18.79;60.31;94947.59;5133423;27;20658;-84
2021/07/02 09:28:13;;;;;;;2.90;2.60;;;19.00;75.90;;;18.76;60.83;94943.59;5083259;28;20233;-83
2021/07/02 09:30:48;;;;;;;3.90;3.10;;;19.00;76.10;;;18.76;60.92;94940.09;5089958;28;20270;-83
2021/07/02 09:33:18;;;;;;;2.95;2.65;;;18.90;76.20;;;18.83;60.84;94946.06;5086735;28;20201;-83
2021/07/02 09:35:59;;;;;;;3.10;2.80;;;19.00;76.50;;;18.87;60.73;94945.34;5025627;28;20607;-82
2021/07/02 09:38:38;;;;;;;3.28;2.80;;;19.00;76.50;;;18.94;61.04;94944.41;4932896;29;20211;-83
2021/07/02 09:41:07;;;;;;;2.95;2.55;;;19.00;76.50;;;19.02;60.43;94958.06;4647181;30;24977;-83
2021/07/02 09:44:37;;;;;;;3.40;3.05;;;19.00;76.80;;;19.07;60.86;94957.34;5140176;27;20538;-83
2021/07/02 09:47:28;;;;;;;3.33;2.88;;;19.10;77.00;;;19.07;60.48;94951.25;5108429;28;20222;-83
2021/07/02 09:50:26;;;;;;;3.33;3.00;;;19.10;76.60;;;19.02;60.34;94954.63;5074141;28;20642;-83
2021/07/02 09:53:09;;;;;;;4.15;3.15;;;19.10;76.50;;;18.99;60.42;94953.25;5026510;28;20211;-82
2021/07/02 09:55:47;;;;;;;3.75;2.60;;;19.10;76.40;;;18.92;60.16;94955.28;5022512;28;20649;-83
2021/07/02 09:58:21;;;;;;;3.22;2.90;;;19.10;76.30;;;18.84;60.76;94956.44;4958092;28;20284;-83
2021/07/02 10:00:51;;;;;;;3.03;2.72;;;19.00;76.60;;;18.83;61.41;94956.69;4839854;29;20261;-83
2021/07/02 10:05:55;;;;;;;4.25;2.92;;;19.00;76.80;;;18.94;61.06;94947.06;5131491;27;20571;-83
2021/07/02 10:08:34;;;;;;;2.78;2.58;;;19.00;76.70;;;18.90;60.82;94954.66;5060945;28;20219;-83
2021/07/02 10:11:04;;;;;;;2.83;2.58;;;19.00;76.60;;;18.92;61.09;94970.41;5087255;28;20218;-83
2021/07/02 10:13:36;;;;;;;3.50;2.78;;;19.00;76.60;;;18.95;60.82;94960.09;5072284;28;20255;-84
2021/07/02 10:16:06;;;;;;;2.53;2.33;;;19.10;76.90;;;19.00;60.74;94954.03;5029076;28;20299;-84
2021/07/02 10:18:56;;;;;;;2.65;2.42;;;19.00;76.80;;;19.02;60.73;94959.94;4941719;28;20208;-83
2021/07/02 10:21:24;;;;;;;3.40;3.10;;;19.10;76.80;;;18.95;60.30;94949.47;4849897;29;20219;-85
2021/07/02 10:23:54;;;;;;;3.35;2.90;;;19.10;76.50;;;18.96;60.81;94960.91;4691541;30;20241;-84
2021/07/02 10:26:36;;;;;;;3.28;2.70;;;19.10;76.40;;;18.97;60.58;94958.00;5151073;27;20845;-84
2021/07/02 10:29:04;;;;;;;3.10;2.80;;;19.10;76.50;;;19.07;61.06;94953.91;5089728;28;20259;-85
2021/07/02 10:31:30;;;;;;;3.58;2.80;;;19.10;76.80;;;19.19;60.52;94958.03;5087746;28;20201;-85
2021/07/02 10:34:00;;;;;;;3.53;3.10;;;19.10;77.00;;;19.31;60.81;94949.16;5106795;28;20222;-84
2021/07/02 10:36:41;;;;;;;3.70;3.22;;;19.20;77.00;;;19.36;60.30;94952.69;5010239;28;20659;-84
2021/07/02 10:39:36;;;;;;;4.32;3.47;;;19.30;76.70;;;19.32;59.89;94948.09;4971819;28;20225;-84
2021/07/02 10:42:09;;;;;;;3.10;2.80;;;19.30;76.40;;;19.23;60.06;94954.91;4909863;28;20265;-84
2021/07/02 10:47:28;;;;;;;3.22;2.80;;;19.30;76.00;;;19.00;60.10;94962.03;5149245;27;20557;-85
2021/07/02 10:49:55;;;;;;;3.00;2.58;;;19.30;76.00;;;18.86;60.75;94964.19;5104746;27;20220;-84
2021/07/02 10:52:23;;;;;;;2.75;2.53;;;19.20;75.80;;;18.74;60.31;94974.91;5110305;27;20204;-84
2021/07/02 10:54:57;;;;;;;3.35;2.83;;;19.10;75.80;;;18.62;60.88;94968.84;5104409;28;20281;-84
2021/07/02 10:57:26;;;;;;;3.30;2.80;;;19.00;75.90;;;18.58;60.73;94967.72;5049544;28;20295;-83
2021/07/02 10:59:53;;;;;;;3.30;3.00;;;18.90;76.20;;;18.61;61.45;94970.69;4990634;28;20257;-82
2021/07/02 11:02:23;;;;;;;3.60;3.17;;;18.80;76.50;;;18.69;61.03;94972.97;5005496;28;20228;-83
2021/07/02 11:04:54;;;;;;;4.40;3.05;;;18.80;76.70;;;18.82;61.44;94971.84;4812739;29;20267;-83
2021/07/02 11:09:49;;;;;;;4.88;3.58;;;18.90;77.20;;;18.95;60.97;94972.59;5122194;27;21171;-84
2021/07/02 11:12:34;;;;;;;3.30;3.00;;;18.90;76.80;;;19.02;60.82;94973.22;5051247;28;20225;-84
2021/07/02 11:15:05;;;;;;;4.32;2.67;;;19.00;77.00;;;19.08;61.19;94979.41;5064762;28;20215;-84
2021/07/02 11:18:10;;;;;;;3.17;2.72;;;19.10;77.10;;;19.09;60.97;94981.84;5063369;28;20194;-85
2021/07/02 11:20:37;;;;;;;3.17;2.88;;;19.10;77.00;;;19.12;61.06;94970.69;4948321;28;20235;-84
2021/07/02 11:23:18;;;;;;;3.58;3.08;;;19.10;76.70;;;19.19;60.81;94967.88;4855027;29;20230;-84
2021/07/02 11:31:13;;;;;;;3.63;3.10;;;19.20;76.90;;;19.39;60.33;94972.66;5151349;27;20642;-86
2021/07/02 11:33:41;;;;;;;3.45;3.15;;;19.30;76.80;;;19.42;59.99;94976.69;5094363;27;20200;-85